Time,TemperatureF,DewpointF,PressureIn,WindDirection,WindDirectionDegrees,WindSpeedMPH,WindSpeedGustMPH,Humidity,HourlyPrecipIn,Conditions,Clouds,dailyrainin,SolarRadiationWatts/m^2,SoftwareType,DateUTC
2013-08-04 00:02:00,58.7,56.1,29.78,WNW,296,0.0,0.0,91,0.00,,CLR,0.00,0.00,VWS V14.01,2013-08-04 04:02:00,
2013-08-04 00:12:00,58.7,56.7,29.78,WNW,296,0.0,0.0,93,0.00,,CLR,0.00,0.00,VWS V14.01,2013-08-04 04:12:00,
2013-08-04 00:22:00,58.4,56.7,29.78,WNW,296,0.0,0.0,94,0.00,,CLR,0.00,0.00,VWS V14.01,2013-08-04 04:22:00,
2013-08-04 00:32:00,58.7,56.7,29.78,WNW,296,0.0,0.0,93,0.00,,CLR,0.00,0.00,VWS V14.01,2013-08-04 04:32:00,
2013-08-04 00:42:00,58.9,56.9,29.78,WNW,296,0.0,0.0,93,0.00,,CLR,0.00,0.00,VWS V14.01,2013-08-04 04:42:00,
2013-08-04 00:52:00,58.6,56.6,29.77,WNW,296,0.0,0.0,93,0.00,,CLR,0.00,0.00,VWS V14.01,2013-08-04 04:52:00,
2013-08-04 01:02:00,58.7,56.1,29.78,WNW,296,0.0,0.0,91,0.00,,CLR,0.00,0.00,VWS V14.01,2013-08-04 05:02:00,
2013-08-04 01:12:00,58.9,56.6,29.78,WNW,296,0.0,0.0,92,0.00,,CLR,0.00,0.00,VWS V14.01,2013-08-04 05:12:00,
2013-08-04 01:22:00,58.9,56.3,29.77,WNW,296,0.0,0.0,91,0.00,,CLR,0.00,0.00,VWS V14.01,2013-08-04 05:22:00,
2013-08-04 01:32:00,58.4,56.1,29.77,WNW,296,0.0,0.0,92,0.00,,CLR,0.00,0.00,VWS V14.01,2013-08-04 05:32:00,
2013-08-04 01:42:00,58.3,56.0,29.77,WNW,296,0.0,0.0,92,0.00,,CLR,0.00,0.00,VWS V14.01,2013-08-04 05:42:00,
2013-08-04 01:52:00,58.7,56.7,29.76,WNW,296,0.0,0.0,93,0.00,,CLR,0.00,0.00,VWS V14.01,2013-08-04 05:52:00,
2013-08-04 02:02:00,59.0,57.0,29.76,WNW,296,0.0,0.0,93,0.00,,FEW110,0.00,0.00,VWS V14.01,2013-08-04 06:02:00,
2013-08-04 02:12:00,58.7,56.7,29.76,WNW,296,0.0,0.0,93,0.00,,FEW110,0.00,0.00,VWS V14.01,2013-08-04 06:12:00,
2013-08-04 02:22:00,58.4,56.7,29.75,WNW,296,0.0,0.0,94,0.00,,FEW110,0.00,0.00,VWS V14.01,2013-08-04 06:22:00,
2013-08-04 02:32:00,58.1,56.4,29.75,WNW,296,0.0,0.0,94,0.00,,FEW110,0.00,0.00,VWS V14.01,2013-08-04 06:32:00,
2013-08-04 02:42:00,57.6,55.9,29.75,WNW,296,0.0,0.0,94,0.00,,FEW110,0.00,0.00,VWS V14.01,2013-08-04 06:42:00,
2013-08-04 02:52:00,57.6,55.9,29.76,WNW,296,0.0,0.0,94,0.00,,FEW110,0.00,0.00,VWS V14.01,2013-08-04 06:52:00,
2013-08-04 03:02:00,57.5,55.8,29.76,WNW,296,0.0,0.0,94,0.00,,CLR,0.00,0.00,VWS V14.01,2013-08-04 07:02:00,
2013-08-04 03:12:00,57.6,55.9,29.76,WNW,296,0.0,0.0,94,0.00,,CLR,0.00,0.00,VWS V14.01,2013-08-04 07:12:00,
2013-08-04 03:22:00,57.3,55.9,29.75,WNW,296,0.0,0.0,95,0.00,,CLR,0.00,0.00,VWS V14.01,2013-08-04 07:22:00,
2013-08-04 03:32:00,57.6,55.9,29.75,WNW,296,0.0,0.0,94,0.00,,CLR,0.00,0.00,VWS V14.01,2013-08-04 07:32:00,
2013-08-04 03:42:00,58.1,56.1,29.75,WNW,296,0.0,0.0,93,0.00,,CLR,0.00,0.00,VWS V14.01,2013-08-04 07:42:00,
2013-08-04 03:52:00,58.1,55.8,29.75,WNW,296,0.0,0.0,92,0.00,,CLR,0.00,0.00,VWS V14.01,2013-08-04 07:52:00,
2013-08-04 04:02:00,58.0,56.0,29.75,WNW,296,0.0,0.0,93,0.00,,CLR,0.00,0.00,VWS V14.01,2013-08-04 08:02:00,
2013-08-04 04:12:00,57.5,55.2,29.75,WNW,296,0.0,0.0,92,0.00,,CLR,0.00,0.00,VWS V14.01,2013-08-04 08:12:00,
2013-08-04 04:22:00,57.3,55.3,29.76,WNW,296,0.0,0.0,93,0.00,,CLR,0.00,0.00,VWS V14.01,2013-08-04 08:22:00,
2013-08-04 04:32:00,57.5,55.8,29.75,WNW,296,0.0,0.0,94,0.00,,CLR,0.00,0.00,VWS V14.01,2013-08-04 08:32:00,
2013-08-04 04:42:00,57.8,56.1,29.75,WNW,296,0.0,0.0,94,0.00,,CLR,0.00,0.00,VWS V14.01,2013-08-04 08:42:00,
2013-08-04 04:52:00,57.5,55.8,29.76,WNW,296,0.0,0.0,94,0.00,,CLR,0.00,0.00,VWS V14.01,2013-08-04 08:52:00,
2013-08-04 05:02:00,57.5,56.1,29.76,WNW,296,0.0,0.0,95,0.00,,CLR,0.00,0.00,VWS V14.01,2013-08-04 09:02:00,
2013-08-04 05:12:00,57.2,56.4,29.76,WNW,296,0.0,0.0,97,0.00,,CLR,0.00,0.00,VWS V14.01,2013-08-04 09:12:00,
2013-08-04 05:22:00,56.9,56.3,29.77,WNW,296,0.0,0.0,98,0.00,,CLR,0.00,0.00,VWS V14.01,2013-08-04 09:22:00,
2013-08-04 05:32:00,56.9,56.6,29.77,WNW,296,0.0,0.0,99,0.00,,CLR,0.00,0.00,VWS V14.01,2013-08-04 09:32:00,
2013-08-04 05:42:00,56.6,56.3,29.77,WNW,296,0.0,0.0,99,0.00,,CLR,0.00,0.00,VWS V14.01,2013-08-04 09:42:00,
2013-08-04 05:52:00,56.6,56.3,29.77,WNW,296,0.0,0.0,99,0.00,,CLR,0.00,7.00,VWS V14.01,2013-08-04 09:52:00,
2013-08-04 06:02:00,56.7,56.7,29.77,WNW,296,0.0,0.0,100,0.00,,CLR,0.00,11.00,VWS V14.01,2013-08-04 10:02:00,
2013-08-04 06:12:00,57.0,57.0,29.77,WNW,296,0.0,0.0,100,0.00,,CLR,0.00,19.00,VWS V14.01,2013-08-04 10:12:00,
2013-08-04 06:22:00,56.9,56.9,29.78,WNW,296,0.0,0.0,100,0.00,,CLR,0.00,23.00,VWS V14.01,2013-08-04 10:22:00,
2013-08-04 06:32:00,57.0,57.0,29.78,WNW,296,0.0,0.0,100,0.00,,CLR,0.00,21.00,VWS V14.01,2013-08-04 10:32:00,
2013-08-04 06:42:00,57.3,57.3,29.78,WNW,296,0.0,0.0,100,0.00,,CLR,0.00,18.00,VWS V14.01,2013-08-04 10:42:00,
2013-08-04 06:52:00,58.0,57.7,29.78,WNW,296,0.0,0.0,99,0.00,,CLR,0.00,23.00,VWS V14.01,2013-08-04 10:52:00,
2013-08-04 07:12:00,58.4,57.3,29.78,WNW,296,0.0,0.0,96,0.00,,CLR,0.00,26.00,VWS V14.01,2013-08-04 11:12:00,
2013-08-04 07:22:00,58.7,57.8,29.79,WNW,296,0.0,0.0,97,0.00,,CLR,0.00,25.00,VWS V14.01,2013-08-04 11:22:00,
2013-08-04 07:32:00,59.2,57.8,29.79,WNW,296,0.0,0.0,95,0.00,,CLR,0.00,30.00,VWS V14.01,2013-08-04 11:32:00,
2013-08-04 07:42:00,59.9,58.2,29.79,WNW,296,0.0,0.0,94,0.00,,CLR,0.00,28.00,VWS V14.01,2013-08-04 11:42:00,
2013-08-04 07:52:00,61.2,58.6,29.79,WNW,297,0.0,0.0,91,0.00,,CLR,0.00,44.00,VWS V14.01,2013-08-04 11:52:00,
2013-08-04 08:02:00,62.1,56.5,29.79,WNW,297,0.0,0.0,82,0.00,,CLR,0.00,39.00,VWS V14.01,2013-08-04 12:02:00,
2013-08-04 08:12:00,62.7,56.1,29.79,WNW,297,0.0,5.0,79,0.00,,CLR,0.00,32.00,VWS V14.01,2013-08-04 12:12:00,
2013-08-04 08:22:00,63.5,56.2,29.79,WNW,297,0.0,0.0,77,0.00,,CLR,0.00,35.00,VWS V14.01,2013-08-04 12:22:00,
2013-08-04 08:32:00,64.3,56.6,29.79,West,270,4.0,7.0,76,0.00,,CLR,0.00,162.00,VWS V14.01,2013-08-04 12:32:00,
2013-08-04 08:42:00,64.8,56.0,29.79,West,278,6.0,10.0,73,0.00,,CLR,0.00,90.00,VWS V14.01,2013-08-04 12:42:00,
2013-08-04 08:52:00,65.2,56.7,29.78,West,271,5.0,12.0,74,0.00,,CLR,0.00,39.00,VWS V14.01,2013-08-04 12:52:00,
2013-08-04 09:02:00,65.8,55.8,29.78,WNW,283,5.0,15.0,70,0.00,,CLR,0.00,123.00,VWS V14.01,2013-08-04 13:02:00,
2013-08-04 09:12:00,66.0,55.2,29.78,WNW,295,4.0,12.0,68,0.00,,CLR,0.00,44.00,VWS V14.01,2013-08-04 13:12:00,
2013-08-04 09:22:00,66.0,56.3,29.78,West,272,12.0,17.0,71,0.00,,CLR,0.00,369.00,VWS V14.01,2013-08-04 13:22:00,
2013-08-04 09:32:00,66.6,55.7,29.77,West,281,9.0,15.0,68,0.00,,CLR,0.00,62.00,VWS V14.01,2013-08-04 13:32:00,
2013-08-04 09:42:00,67.3,55.2,29.77,West,262,16.0,18.0,65,0.00,,CLR,0.00,49.00,VWS V14.01,2013-08-04 13:42:00,
2013-08-04 09:52:00,67.1,55.4,29.77,NW,311,14.0,17.0,66,0.00,,CLR,0.00,56.00,VWS V14.01,2013-08-04 13:52:00,
2013-08-04 10:02:00,67.6,54.6,29.77,WNW,293,6.0,17.0,63,0.00,,CLR,0.00,62.00,VWS V14.01,2013-08-04 14:02:00,
2013-08-04 10:12:00,68.3,53.9,29.77,West,277,8.0,14.0,60,0.00,,CLR,0.00,63.00,VWS V14.01,2013-08-04 14:12:00,
2013-08-04 10:22:00,68.6,54.2,29.77,West,276,11.0,18.0,60,0.00,,CLR,0.00,77.00,VWS V14.01,2013-08-04 14:22:00,
2013-08-04 10:32:00,69.1,55.1,29.77,WNW,293,4.0,17.0,61,0.00,,CLR,0.00,100.00,VWS V14.01,2013-08-04 14:32:00,
2013-08-04 10:42:00,69.3,54.8,29.77,NW,316,4.0,14.0,60,0.00,,CLR,0.00,156.00,VWS V14.01,2013-08-04 14:42:00,
2013-08-04 10:52:00,69.8,53.4,29.77,NW,313,7.0,18.0,56,0.00,,CLR,0.00,91.00,VWS V14.01,2013-08-04 14:52:00,
2013-08-04 11:02:00,70.3,53.9,29.78,North,1,6.0,17.0,56,0.00,,FEW042,0.00,155.00,VWS V14.01,2013-08-04 15:02:00,
2013-08-04 11:12:00,70.4,54.9,29.78,WNW,286,6.0,15.0,58,0.00,,FEW042,0.00,223.00,VWS V14.01,2013-08-04 15:12:00,
2013-08-04 11:22:00,70.8,55.3,29.77,NNE,17,5.0,14.0,58,0.00,,FEW042,0.00,183.00,VWS V14.01,2013-08-04 15:22:00,
2013-08-04 11:32:00,71.1,53.6,29.77,WNW,290,16.0,17.0,54,0.00,,FEW042,0.00,253.00,VWS V14.01,2013-08-04 15:32:00,
2013-08-04 11:42:00,72.3,54.7,29.77,WNW,285,9.0,18.0,54,0.00,,FEW042,0.00,909.00,VWS V14.01,2013-08-04 15:42:00,
2013-08-04 11:52:00,72.5,53.4,29.77,NNW,341,7.0,13.0,51,0.00,,FEW042,0.00,970.00,VWS V14.01,2013-08-04 15:52:00,
2013-08-04 12:02:00,73.2,54.5,29.76,WNW,286,10.0,18.0,52,0.00,,SCT050,0.00,942.00,VWS V14.01,2013-08-04 16:02:00,
2013-08-04 12:12:00,73.0,56.9,29.76,WNW,283,11.0,17.0,57,0.00,,SCT050,0.00,1132.00,VWS V14.01,2013-08-04 16:12:00,
2013-08-04 12:22:00,72.5,53.9,29.76,WNW,295,6.0,11.0,52,0.00,,SCT050,0.00,297.00,VWS V14.01,2013-08-04 16:22:00,
2013-08-04 12:32:00,71.6,54.6,29.76,West,280,7.0,13.0,55,0.00,,SCT050,0.00,301.00,VWS V14.01,2013-08-04 16:32:00,
2013-08-04 12:42:00,72.3,55.7,29.76,West,271,18.0,19.0,56,0.00,,SCT050,0.00,417.00,VWS V14.01,2013-08-04 16:42:00,
2013-08-04 12:52:00,72.7,54.6,29.76,WSW,257,10.0,18.0,53,0.00,,SCT050,0.00,1055.00,VWS V14.01,2013-08-04 16:52:00,
2013-08-04 13:02:00,71.8,55.8,29.76,WSW,245,12.0,17.0,57,0.00,,BKN050,0.00,239.00,VWS V14.01,2013-08-04 17:02:00,
2013-08-04 13:12:00,71.5,56.9,29.76,WSW,256,16.0,16.0,60,0.00,,BKN050,0.00,425.00,VWS V14.01,2013-08-04 17:12:00,
2013-08-04 13:22:00,72.3,56.2,29.76,WNW,288,11.0,20.0,57,0.00,,BKN050,0.00,360.00,VWS V14.01,2013-08-04 17:22:00,
2013-08-04 13:32:00,70.6,57.4,29.76,WNW,283,10.0,18.0,63,0.00,,BKN050,0.00,397.00,VWS V14.01,2013-08-04 17:32:00,
2013-08-04 13:42:00,70.6,56.1,29.76,WNW,286,9.0,11.0,60,0.00,,BKN050,0.00,380.00,VWS V14.01,2013-08-04 17:42:00,
2013-08-04 13:52:00,72.8,56.2,29.76,WSW,257,9.0,14.0,56,0.00,,BKN050,0.00,1053.00,VWS V14.01,2013-08-04 17:52:00,
2013-08-04 14:02:00,70.8,57.6,29.76,ENE,64,2.0,21.0,63,0.00,,FEW060,0.00,251.00,VWS V14.01,2013-08-04 18:02:00,
2013-08-04 14:12:00,70.1,56.0,29.76,West,274,9.0,14.0,61,0.00,,FEW060,0.00,156.00,VWS V14.01,2013-08-04 18:12:00,
2013-08-04 14:22:00,70.6,55.6,29.76,North,349,11.0,12.0,59,0.00,,FEW060,0.00,211.00,VWS V14.01,2013-08-04 18:22:00,
2013-08-04 14:32:00,70.3,52.9,29.76,WNW,283,12.0,17.0,54,0.00,,FEW060,0.00,192.00,VWS V14.01,2013-08-04 18:32:00,
2013-08-04 14:42:00,68.6,51.8,29.76,West,281,12.0,17.0,55,0.00,,FEW060,0.00,176.00,VWS V14.01,2013-08-04 18:42:00,
2013-08-04 14:52:00,68.3,53.9,29.77,West,279,5.0,12.0,60,0.00,,FEW060,0.00,181.00,VWS V14.01,2013-08-04 18:52:00,
2013-08-04 15:02:00,68.6,55.5,29.77,West,264,10.0,13.0,63,0.00,,SCT100,0.00,279.00,VWS V14.01,2013-08-04 19:02:00,
2013-08-04 15:12:00,69.4,53.5,29.77,WSW,238,7.0,10.0,57,0.00,,SCT100,0.00,255.00,VWS V14.01,2013-08-04 19:12:00,
2013-08-04 15:22:00,67.8,56.9,29.76,West,264,9.0,10.0,68,0.00,,SCT100,0.00,134.00,VWS V14.01,2013-08-04 19:22:00,
2013-08-04 15:32:00,68.4,57.0,29.76,West,274,5.0,9.0,67,0.00,,SCT100,0.00,420.00,VWS V14.01,2013-08-04 19:32:00,
2013-08-04 15:42:00,69.4,56.3,29.76,West,274,7.0,11.0,63,0.00,,SCT100,0.00,258.00,VWS V14.01,2013-08-04 19:42:00,
2013-08-04 15:52:00,70.1,55.6,29.76,West,276,10.0,15.0,60,0.00,,SCT100,0.00,350.00,VWS V14.01,2013-08-04 19:52:00,
2013-08-04 16:02:00,70.3,54.8,29.75,WNW,293,7.0,18.0,58,0.00,,CLR,0.00,571.00,VWS V14.01,2013-08-04 20:02:00,
2013-08-04 16:22:00,72.3,54.7,29.74,WNW,298,11.0,16.0,54,0.00,,CLR,0.00,754.00,VWS V14.01,2013-08-04 20:22:00,
2013-08-04 16:32:00,72.3,52.6,29.75,North,1,17.0,17.0,50,0.00,,CLR,0.00,608.00,VWS V14.01,2013-08-04 20:32:00,
2013-08-04 16:52:00,70.9,55.9,29.76,NNE,32,6.0,13.0,59,0.00,,CLR,0.00,536.00,VWS V14.01,2013-08-04 20:52:00,
2013-08-04 17:02:00,70.3,55.3,29.77,North,9,6.0,19.0,59,0.00,,SCT050,0.00,508.00,VWS V14.01,2013-08-04 21:02:00,
2013-08-04 17:12:00,70.6,54.6,29.77,NW,325,5.0,11.0,57,0.00,,SCT050,0.00,406.00,VWS V14.01,2013-08-04 21:12:00,
2013-08-04 17:22:00,69.9,54.9,29.77,NW,317,2.0,13.0,59,0.00,,SCT050,0.00,369.00,VWS V14.01,2013-08-04 21:22:00,
2013-08-04 17:32:00,69.9,55.4,29.77,WNW,297,4.0,13.0,60,0.00,,SCT050,0.00,51.00,VWS V14.01,2013-08-04 21:32:00,
2013-08-04 17:42:00,68.8,55.3,29.77,NNW,341,5.0,10.0,62,0.00,,SCT050,0.00,77.00,VWS V14.01,2013-08-04 21:42:00,
2013-08-04 17:52:00,68.8,54.8,29.78,NW,309,3.0,6.0,61,0.00,,SCT050,0.00,294.00,VWS V14.01,2013-08-04 21:52:00,
2013-08-04 18:02:00,69.4,54.5,29.77,NW,318,6.0,9.0,59,0.00,,CLR,0.00,360.00,VWS V14.01,2013-08-04 22:02:00,
2013-08-04 18:12:00,69.4,53.0,29.77,NNE,32,5.0,13.0,56,0.00,,CLR,0.00,290.00,VWS V14.01,2013-08-04 22:12:00,
2013-08-04 18:22:00,68.3,54.3,29.78,North,2,4.0,7.0,61,0.00,,CLR,0.00,174.00,VWS V14.01,2013-08-04 22:22:00,
2013-08-04 18:32:00,68.1,54.6,29.78,North,358,3.0,9.0,62,0.00,,CLR,0.00,216.00,VWS V14.01,2013-08-04 22:32:00,
2013-08-04 18:42:00,68.3,54.8,29.78,NW,313,1.0,6.0,62,0.00,,CLR,0.00,243.00,VWS V14.01,2013-08-04 22:42:00,
2013-08-04 18:52:00,68.1,55.0,29.79,WNW,291,5.0,10.0,63,0.00,,CLR,0.00,195.00,VWS V14.01,2013-08-04 22:52:00,
2013-08-04 19:02:00,67.3,54.3,29.79,NW,319,3.0,6.0,63,0.00,,CLR,0.00,18.00,VWS V14.01,2013-08-04 23:02:00,
2013-08-04 19:12:00,67.1,54.5,29.79,WNW,297,5.0,9.0,64,0.00,,CLR,0.00,37.00,VWS V14.01,2013-08-04 23:12:00,
2013-08-04 19:22:00,66.3,55.4,29.80,WNW,288,0.0,6.0,68,0.00,,CLR,0.00,11.00,VWS V14.01,2013-08-04 23:22:00,
2013-08-04 19:32:00,66.0,54.3,29.81,NW,323,3.0,4.0,66,0.00,,CLR,0.00,9.00,VWS V14.01,2013-08-04 23:32:00,
2013-08-04 19:42:00,65.6,54.8,29.81,NW,323,0.0,3.0,68,0.00,,CLR,0.00,7.00,VWS V14.01,2013-08-04 23:42:00,
2013-08-04 19:52:00,65.2,55.2,29.81,NNW,330,4.0,6.0,70,0.00,,CLR,0.00,5.00,VWS V14.01,2013-08-04 23:52:00,
2013-08-04 20:02:00,64.8,54.0,29.81,ESE,120,4.0,6.0,68,0.00,,CLR,0.00,0.00,VWS V14.01,2013-08-05 00:02:00,
2013-08-04 20:12:00,64.8,53.2,29.81,North,358,0.0,6.0,66,0.00,,CLR,0.00,0.00,VWS V14.01,2013-08-05 00:12:00,
2013-08-04 20:22:00,64.5,53.3,29.80,WNW,302,3.0,7.0,67,0.00,,CLR,0.00,0.00,VWS V14.01,2013-08-05 00:22:00,
2013-08-04 20:32:00,64.0,52.0,29.81,North,359,2.0,7.0,65,0.00,,CLR,0.00,0.00,VWS V14.01,2013-08-05 00:32:00,
2013-08-04 20:42:00,64.0,51.6,29.81,NW,319,3.0,6.0,64,0.00,,CLR,0.00,0.00,VWS V14.01,2013-08-05 00:42:00,
2013-08-04 20:52:00,64.0,52.0,29.82,NW,323,3.0,6.0,65,0.00,,CLR,0.00,0.00,VWS V14.01,2013-08-05 00:52:00,
2013-08-04 21:02:00,63.7,52.5,29.82,NW,308,4.0,7.0,67,0.00,,CLR,0.00,0.00,VWS V14.01,2013-08-05 01:02:00,
2013-08-04 21:12:00,62.9,53.4,29.82,WNW,285,4.0,6.0,71,0.00,,CLR,0.00,0.00,VWS V14.01,2013-08-05 01:12:00,
2013-08-04 21:22:00,62.4,53.6,29.83,WNW,289,5.0,7.0,73,0.00,,CLR,0.00,0.00,VWS V14.01,2013-08-05 01:22:00,
2013-08-04 21:32:00,62.3,52.8,29.83,WNW,285,2.0,7.0,71,0.00,,CLR,0.00,0.00,VWS V14.01,2013-08-05 01:32:00,
2013-08-04 21:42:00,61.6,52.9,29.83,WSW,252,5.0,7.0,73,0.00,,CLR,0.00,0.00,VWS V14.01,2013-08-05 01:42:00,
2013-08-04 21:52:00,60.7,52.7,29.84,West,265,4.0,8.0,75,0.00,,CLR,0.00,0.00,VWS V14.01,2013-08-05 01:52:00,
2013-08-04 22:02:00,61.2,53.6,29.83,WNW,289,5.0,7.0,76,0.00,,CLR,0.00,0.00,VWS V14.01,2013-08-05 02:02:00,
2013-08-04 22:12:00,60.7,52.7,29.83,NW,307,4.0,7.0,75,0.00,,CLR,0.00,0.00,VWS V14.01,2013-08-05 02:12:00,
2013-08-04 22:22:00,60.9,52.9,29.84,WNW,300,5.0,10.0,75,0.00,,CLR,0.00,0.00,VWS V14.01,2013-08-05 02:22:00,
2013-08-04 22:32:00,60.5,52.9,29.84,WNW,292,3.0,7.0,76,0.00,,CLR,0.00,0.00,VWS V14.01,2013-08-05 02:32:00,
2013-08-04 22:42:00,60.1,52.9,29.84,West,274,3.0,6.0,77,0.00,,CLR,0.00,0.00,VWS V14.01,2013-08-05 02:42:00,
2013-08-04 22:52:00,60.1,53.2,29.84,West,275,6.0,9.0,78,0.00,,CLR,0.00,0.00,VWS V14.01,2013-08-05 02:52:00,
2013-08-04 23:02:00,60.1,53.2,29.84,WNW,283,5.0,7.0,78,0.00,,CLR,0.00,0.00,VWS V14.01,2013-08-05 03:02:00,
2013-08-04 23:12:00,60.1,53.6,29.84,West,267,1.0,6.0,79,0.00,,CLR,0.00,0.00,VWS V14.01,2013-08-05 03:12:00,
2013-08-04 23:22:00,59.6,53.1,29.84,West,266,6.0,6.0,79,0.00,,CLR,0.00,0.00,VWS V14.01,2013-08-05 03:22:00,
2013-08-04 23:32:00,59.6,53.8,29.84,WNW,300,2.0,8.0,81,0.00,,CLR,0.00,0.00,VWS V14.01,2013-08-05 03:32:00,
2013-08-04 23:42:00,59.3,53.5,29.84,WNW,302,2.0,5.0,81,0.00,,CLR,0.00,0.00,VWS V14.01,2013-08-05 03:42:00,
2013-08-04 23:52:00,59.2,53.0,29.84,NW,305,2.0,5.0,80,0.00,,CLR,0.00,0.00,VWS V14.01,2013-08-05 03:52:00,